sensor_id;sensor_type;location;lat;lon;timestamp;temperature;humidity
16174;DHT22;14031;50.158;8.626;2022-10-16T00:01:24;16.10;99.90
16174;DHT22;14031;50.158;8.626;2022-10-16T00:03:51;16.20;99.90
16174;DHT22;14031;50.158;8.626;2022-10-16T00:06:20;16.20;99.90
16174;DHT22;14031;50.158;8.626;2022-10-16T00:08:49;16.20;99.90
16174;DHT22;14031;50.158;8.626;2022-10-16T00:11:18;16.20;99.90
16174;DHT22;14031;50.158;8.626;2022-10-16T00:13:49;16.20;99.90
16174;DHT22;14031;50.158;8.626;2022-10-16T00:16:18;16.20;99.90
16174;DHT22;14031;50.158;8.626;2022-10-16T00:18:45;16.20;99.90
16174;DHT22;14031;50.158;8.626;2022-10-16T00:21:13;16.20;99.90
16174;DHT22;14031;50.158;8.626;2022-10-16T00:23:40;16.10;99.90
16174;DHT22;14031;50.158;8.626;2022-10-16T00:26:11;16.20;99.90
16174;DHT22;14031;50.158;8.626;2022-10-16T00:28:38;16.30;99.90
16174;DHT22;14031;50.158;8.626;2022-10-16T00:31:05;16.10;99.90
16174;DHT22;14031;50.158;8.626;2022-10-16T00:33:32;16.20;99.90
16174;DHT22;14031;50.158;8.626;2022-10-16T00:35:59;16.20;99.90
16174;DHT22;14031;50.158;8.626;2022-10-16T00:38:30;16.20;99.90
16174;DHT22;14031;50.158;8.626;2022-10-16T00:40:57;16.20;99.90
16174;DHT22;14031;50.158;8.626;2022-10-16T00:43:37;16.20;99.90
16174;DHT22;14031;50.158;8.626;2022-10-16T00:46:10;16.20;99.90
16174;DHT22;14031;50.158;8.626;2022-10-16T00:48:37;16.20;99.90
16174;DHT22;14031;50.158;8.626;2022-10-16T00:51:06;16.20;99.90
16174;DHT22;14031;50.158;8.626;2022-10-16T00:53:35;16.20;99.90
16174;DHT22;14031;50.158;8.626;2022-10-16T00:56:03;16.30;99.90
16174;DHT22;14031;50.158;8.626;2022-10-16T00:58:30;16.30;99.90
16174;DHT22;14031;50.158;8.626;2022-10-16T01:00:59;16.30;99.90
16174;DHT22;14031;50.158;8.626;2022-10-16T01:03:29;16.30;99.90
16174;DHT22;14031;50.158;8.626;2022-10-16T01:06:07;16.40;99.90
16174;DHT22;14031;50.158;8.626;2022-10-16T01:08:45;16.40;99.90
16174;DHT22;14031;50.158;8.626;2022-10-16T01:11:21;16.40;99.90
16174;DHT22;14031;50.158;8.626;2022-10-16T01:13:54;16.40;99.90
16174;DHT22;14031;50.158;8.626;2022-10-16T01:16:30;16.40;99.90
16174;DHT22;14031;50.158;8.626;2022-10-16T01:19:04;16.30;99.90
16174;DHT22;14031;50.158;8.626;2022-10-16T01:21:38;16.40;99.90
16174;DHT22;14031;50.158;8.626;2022-10-16T01:24:11;16.40;99.90
16174;DHT22;14031;50.158;8.626;2022-10-16T01:29:26;16.40;99.90
16174;DHT22;14031;50.158;8.626;2022-10-16T01:31:59;16.40;99.90
16174;DHT22;14031;50.158;8.626;2022-10-16T01:34:32;16.50;99.90
16174;DHT22;14031;50.158;8.626;2022-10-16T01:37:05;16.40;99.90
16174;DHT22;14031;50.158;8.626;2022-10-16T01:39:37;16.50;99.90
16174;DHT22;14031;50.158;8.626;2022-10-16T01:42:09;16.50;99.90
16174;DHT22;14031;50.158;8.626;2022-10-16T01:44:41;16.50;99.90
16174;DHT22;14031;50.158;8.626;2022-10-16T01:47:10;16.50;99.90
16174;DHT22;14031;50.158;8.626;2022-10-16T01:49:40;16.50;99.90
16174;DHT22;14031;50.158;8.626;2022-10-16T01:52:10;16.50;99.90
16174;DHT22;14031;50.158;8.626;2022-10-16T01:54:41;16.50;99.90
16174;DHT22;14031;50.158;8.626;2022-10-16T01:57:10;16.50;99.90
16174;DHT22;14031;50.158;8.626;2022-10-16T01:59:42;16.40;99.90
16174;DHT22;14031;50.158;8.626;2022-10-16T02:02:10;16.50;99.90
16174;DHT22;14031;50.158;8.626;2022-10-16T02:04:40;16.50;99.90
16174;DHT22;14031;50.158;8.626;2022-10-16T02:07:09;16.50;99.90
16174;DHT22;14031;50.158;8.626;2022-10-16T02:09:36;16.50;99.90
16174;DHT22;14031;50.158;8.626;2022-10-16T02:12:08;16.50;99.90
16174;DHT22;14031;50.158;8.626;2022-10-16T02:14:39;16.50;99.90
16174;DHT22;14031;50.158;8.626;2022-10-16T02:17:11;16.50;99.90
16174;DHT22;14031;50.158;8.626;2022-10-16T02:19:38;16.50;99.90
16174;DHT22;14031;50.158;8.626;2022-10-16T02:22:08;16.50;99.90
16174;DHT22;14031;50.158;8.626;2022-10-16T02:24:40;16.50;99.90
16174;DHT22;14031;50.158;8.626;2022-10-16T02:27:13;16.60;99.90
16174;DHT22;14031;50.158;8.626;2022-10-16T02:29:47;16.60;99.90
16174;DHT22;14031;50.158;8.626;2022-10-16T02:32:17;16.50;99.90
16174;DHT22;14031;50.158;8.626;2022-10-16T02:34:48;16.50;99.90
16174;DHT22;14031;50.158;8.626;2022-10-16T02:37:16;16.50;99.90
16174;DHT22;14031;50.158;8.626;2022-10-16T02:39:44;16.60;99.90
16174;DHT22;14031;50.158;8.626;2022-10-16T02:42:12;16.50;99.90
16174;DHT22;14031;50.158;8.626;2022-10-16T02:44:41;16.60;99.90
16174;DHT22;14031;50.158;8.626;2022-10-16T02:47:12;16.60;99.90
16174;DHT22;14031;50.158;8.626;2022-10-16T02:49:41;16.60;99.90
16174;DHT22;14031;50.158;8.626;2022-10-16T02:52:08;16.60;99.90
16174;DHT22;14031;50.158;8.626;2022-10-16T02:54:34;16.50;99.90
16174;DHT22;14031;50.158;8.626;2022-10-16T02:57:01;16.50;99.90
16174;DHT22;14031;50.158;8.626;2022-10-16T02:59:28;16.50;99.90
16174;DHT22;14031;50.158;8.626;2022-10-16T03:01:55;16.50;99.90
16174;DHT22;14031;50.158;8.626;2022-10-16T03:04:23;16.50;99.90
16174;DHT22;14031;50.158;8.626;2022-10-16T03:06:49;16.50;99.90
16174;DHT22;14031;50.158;8.626;2022-10-16T03:09:16;16.50;99.90
16174;DHT22;14031;50.158;8.626;2022-10-16T03:11:43;16.50;99.90
16174;DHT22;14031;50.158;8.626;2022-10-16T03:14:10;16.40;99.90
16174;DHT22;14031;50.158;8.626;2022-10-16T03:16:36;16.40;99.90
16174;DHT22;14031;50.158;8.626;2022-10-16T03:19:03;16.50;99.90
16174;DHT22;14031;50.158;8.626;2022-10-16T03:21:31;16.50;99.90
16174;DHT22;14031;50.158;8.626;2022-10-16T03:23:58;16.50;99.90
16174;DHT22;14031;50.158;8.626;2022-10-16T03:26:28;16.50;99.90
16174;DHT22;14031;50.158;8.626;2022-10-16T03:28:55;16.50;99.90
16174;DHT22;14031;50.158;8.626;2022-10-16T03:31:21;16.50;99.90
16174;DHT22;14031;50.158;8.626;2022-10-16T03:33:48;16.50;99.90
16174;DHT22;14031;50.158;8.626;2022-10-16T03:36:15;16.40;99.90
16174;DHT22;14031;50.158;8.626;2022-10-16T03:38:43;16.40;99.90
16174;DHT22;14031;50.158;8.626;2022-10-16T03:41:10;16.40;99.90
16174;DHT22;14031;50.158;8.626;2022-10-16T03:43:36;16.50;99.90
16174;DHT22;14031;50.158;8.626;2022-10-16T03:46:03;16.40;99.90
16174;DHT22;14031;50.158;8.626;2022-10-16T03:48:32;16.40;99.90
16174;DHT22;14031;50.158;8.626;2022-10-16T03:51:00;16.40;99.90
16174;DHT22;14031;50.158;8.626;2022-10-16T03:53:27;16.40;99.90
16174;DHT22;14031;50.158;8.626;2022-10-16T03:55:55;16.30;99.90
16174;DHT22;14031;50.158;8.626;2022-10-16T03:58:22;16.40;99.90
16174;DHT22;14031;50.158;8.626;2022-10-16T04:00:49;16.40;99.90
16174;DHT22;14031;50.158;8.626;2022-10-16T04:03:15;16.40;99.90
16174;DHT22;14031;50.158;8.626;2022-10-16T04:05:44;16.40;99.90
16174;DHT22;14031;50.158;8.626;2022-10-16T04:08:13;16.40;99.90
16174;DHT22;14031;50.158;8.626;2022-10-16T04:10:39;16.40;99.90
16174;DHT22;14031;50.158;8.626;2022-10-16T04:13:09;16.40;99.90
16174;DHT22;14031;50.158;8.626;2022-10-16T04:15:42;16.40;99.90
16174;DHT22;14031;50.158;8.626;2022-10-16T04:18:10;16.40;99.90
16174;DHT22;14031;50.158;8.626;2022-10-16T04:20:37;16.40;99.90
16174;DHT22;14031;50.158;8.626;2022-10-16T04:23:04;16.30;99.90
16174;DHT22;14031;50.158;8.626;2022-10-16T04:25:31;16.30;99.90
16174;DHT22;14031;50.158;8.626;2022-10-16T04:27:57;16.40;99.90
16174;DHT22;14031;50.158;8.626;2022-10-16T04:30:27;16.30;99.90
16174;DHT22;14031;50.158;8.626;2022-10-16T04:32:53;16.20;99.90
16174;DHT22;14031;50.158;8.626;2022-10-16T04:35:21;16.30;99.90
16174;DHT22;14031;50.158;8.626;2022-10-16T04:37:48;16.30;99.90
16174;DHT22;14031;50.158;8.626;2022-10-16T04:40:16;16.30;99.90
16174;DHT22;14031;50.158;8.626;2022-10-16T04:42:43;16.30;99.90
16174;DHT22;14031;50.158;8.626;2022-10-16T04:45:09;16.30;99.90
16174;DHT22;14031;50.158;8.626;2022-10-16T04:47:41;16.30;99.90
16174;DHT22;14031;50.158;8.626;2022-10-16T04:50:08;16.30;99.90
16174;DHT22;14031;50.158;8.626;2022-10-16T04:52:35;16.30;99.90
16174;DHT22;14031;50.158;8.626;2022-10-16T04:55:02;16.30;99.90
16174;DHT22;14031;50.158;8.626;2022-10-16T04:57:29;16.30;99.90
16174;DHT22;14031;50.158;8.626;2022-10-16T04:59:56;16.30;99.90
16174;DHT22;14031;50.158;8.626;2022-10-16T05:02:23;16.30;99.90
16174;DHT22;14031;50.158;8.626;2022-10-16T05:04:51;16.20;99.90
16174;DHT22;14031;50.158;8.626;2022-10-16T05:07:18;16.20;99.90
16174;DHT22;14031;50.158;8.626;2022-10-16T05:09:45;16.30;99.90
16174;DHT22;14031;50.158;8.626;2022-10-16T05:12:11;16.30;99.90
16174;DHT22;14031;50.158;8.626;2022-10-16T05:14:41;16.30;99.90
16174;DHT22;14031;50.158;8.626;2022-10-16T05:17:08;16.30;99.90
16174;DHT22;14031;50.158;8.626;2022-10-16T05:19:44;16.40;99.90
16174;DHT22;14031;50.158;8.626;2022-10-16T05:22:12;16.30;99.90
16174;DHT22;14031;50.158;8.626;2022-10-16T05:24:38;16.40;99.90
16174;DHT22;14031;50.158;8.626;2022-10-16T05:27:05;16.30;99.90
16174;DHT22;14031;50.158;8.626;2022-10-16T05:29:35;16.30;99.90
16174;DHT22;14031;50.158;8.626;2022-10-16T05:32:02;16.30;99.90
16174;DHT22;14031;50.158;8.626;2022-10-16T05:34:28;16.40;99.90
16174;DHT22;14031;50.158;8.626;2022-10-16T05:36:55;16.30;99.90
16174;DHT22;14031;50.158;8.626;2022-10-16T05:39:24;16.30;99.90
16174;DHT22;14031;50.158;8.626;2022-10-16T05:41:51;16.30;99.90
16174;DHT22;14031;50.158;8.626;2022-10-16T05:44:17;16.30;99.90
16174;DHT22;14031;50.158;8.626;2022-10-16T05:46:46;16.30;99.90
16174;DHT22;14031;50.158;8.626;2022-10-16T05:49:13;16.30;99.90
16174;DHT22;14031;50.158;8.626;2022-10-16T05:51:39;16.30;99.90
16174;DHT22;14031;50.158;8.626;2022-10-16T05:54:06;16.10;99.90
16174;DHT22;14031;50.158;8.626;2022-10-16T05:56:35;16.30;99.90
16174;DHT22;14031;50.158;8.626;2022-10-16T05:59:05;16.30;99.90
16174;DHT22;14031;50.158;8.626;2022-10-16T06:01:32;16.30;99.90
16174;DHT22;14031;50.158;8.626;2022-10-16T06:03:59;16.30;99.90
16174;DHT22;14031;50.158;8.626;2022-10-16T06:06:27;16.30;99.90
16174;DHT22;14031;50.158;8.626;2022-10-16T06:08:56;16.30;99.90
16174;DHT22;14031;50.158;8.626;2022-10-16T06:11:25;16.30;99.90
16174;DHT22;14031;50.158;8.626;2022-10-16T06:13:55;16.20;99.90
16174;DHT22;14031;50.158;8.626;2022-10-16T06:16:23;16.30;99.90
16174;DHT22;14031;50.158;8.626;2022-10-16T06:18:53;16.30;99.90
16174;DHT22;14031;50.158;8.626;2022-10-16T06:21:22;16.30;99.90
16174;DHT22;14031;50.158;8.626;2022-10-16T06:23:50;16.30;99.90
16174;DHT22;14031;50.158;8.626;2022-10-16T06:26:19;16.30;99.90
16174;DHT22;14031;50.158;8.626;2022-10-16T06:28:46;16.30;99.90
16174;DHT22;14031;50.158;8.626;2022-10-16T06:31:15;16.30;99.90
16174;DHT22;14031;50.158;8.626;2022-10-16T06:33:42;16.40;99.90
16174;DHT22;14031;50.158;8.626;2022-10-16T06:36:12;16.30;99.90
16174;DHT22;14031;50.158;8.626;2022-10-16T06:38:40;16.30;99.90
16174;DHT22;14031;50.158;8.626;2022-10-16T06:41:08;16.40;99.90
16174;DHT22;14031;50.158;8.626;2022-10-16T06:43:35;16.40;99.90
16174;DHT22;14031;50.158;8.626;2022-10-16T06:46:03;16.40;99.90
16174;DHT22;14031;50.158;8.626;2022-10-16T06:48:32;16.40;99.90
16174;DHT22;14031;50.158;8.626;2022-10-16T06:50:59;16.40;99.90
16174;DHT22;14031;50.158;8.626;2022-10-16T06:53:28;16.40;99.90
16174;DHT22;14031;50.158;8.626;2022-10-16T06:55:55;16.40;99.90
16174;DHT22;14031;50.158;8.626;2022-10-16T06:58:23;16.50;99.90
16174;DHT22;14031;50.158;8.626;2022-10-16T07:00:55;16.40;99.90
16174;DHT22;14031;50.158;8.626;2022-10-16T07:03:22;16.50;99.90
16174;DHT22;14031;50.158;8.626;2022-10-16T07:05:50;16.50;99.90
16174;DHT22;14031;50.158;8.626;2022-10-16T07:08:17;16.50;99.90
16174;DHT22;14031;50.158;8.626;2022-10-16T07:10:43;16.50;99.90
16174;DHT22;14031;50.158;8.626;2022-10-16T07:13:10;16.50;99.90
16174;DHT22;14031;50.158;8.626;2022-10-16T07:15:38;16.50;99.90
16174;DHT22;14031;50.158;8.626;2022-10-16T07:18:05;16.50;99.90
16174;DHT22;14031;50.158;8.626;2022-10-16T07:20:32;16.50;99.90
16174;DHT22;14031;50.158;8.626;2022-10-16T07:23:00;16.50;99.90
16174;DHT22;14031;50.158;8.626;2022-10-16T07:25:26;16.50;99.90
16174;DHT22;14031;50.158;8.626;2022-10-16T07:27:53;16.50;99.90
16174;DHT22;14031;50.158;8.626;2022-10-16T07:30:22;16.60;99.90
16174;DHT22;14031;50.158;8.626;2022-10-16T07:32:49;16.60;99.90
16174;DHT22;14031;50.158;8.626;2022-10-16T07:35:15;16.60;99.90
16174;DHT22;14031;50.158;8.626;2022-10-16T07:37:44;16.60;99.90
16174;DHT22;14031;50.158;8.626;2022-10-16T07:40:13;16.60;99.90
16174;DHT22;14031;50.158;8.626;2022-10-16T07:42:39;16.60;99.90
16174;DHT22;14031;50.158;8.626;2022-10-16T07:45:07;16.60;99.90
16174;DHT22;14031;50.158;8.626;2022-10-16T07:47:33;16.60;99.90
16174;DHT22;14031;50.158;8.626;2022-10-16T07:50:00;16.60;99.90
16174;DHT22;14031;50.158;8.626;2022-10-16T07:52:27;16.60;99.90
16174;DHT22;14031;50.158;8.626;2022-10-16T07:54:54;16.60;99.90
16174;DHT22;14031;50.158;8.626;2022-10-16T07:57:22;16.60;99.90
16174;DHT22;14031;50.158;8.626;2022-10-16T07:59:48;16.60;99.90
16174;DHT22;14031;50.158;8.626;2022-10-16T08:02:17;16.60;99.90
16174;DHT22;14031;50.158;8.626;2022-10-16T08:04:46;16.70;99.90
16174;DHT22;14031;50.158;8.626;2022-10-16T08:07:13;16.70;99.90
16174;DHT22;14031;50.158;8.626;2022-10-16T08:09:40;16.70;99.90
16174;DHT22;14031;50.158;8.626;2022-10-16T08:12:07;16.70;99.90
16174;DHT22;14031;50.158;8.626;2022-10-16T08:14:37;16.70;99.90
16174;DHT22;14031;50.158;8.626;2022-10-16T08:17:03;16.70;99.90
16174;DHT22;14031;50.158;8.626;2022-10-16T08:19:30;16.70;99.90
16174;DHT22;14031;50.158;8.626;2022-10-16T08:22:00;16.70;99.90
16174;DHT22;14031;50.158;8.626;2022-10-16T08:24:27;16.80;99.90
16174;DHT22;14031;50.158;8.626;2022-10-16T08:26:56;16.80;99.90
16174;DHT22;14031;50.158;8.626;2022-10-16T08:29:23;16.90;99.90
16174;DHT22;14031;50.158;8.626;2022-10-16T08:31:51;16.90;99.90
16174;DHT22;14031;50.158;8.626;2022-10-16T08:34:17;16.90;99.90
16174;DHT22;14031;50.158;8.626;2022-10-16T08:36:44;16.90;99.90
16174;DHT22;14031;50.158;8.626;2022-10-16T08:39:11;16.90;99.90
16174;DHT22;14031;50.158;8.626;2022-10-16T08:47:49;16.90;99.90
16174;DHT22;14031;50.158;8.626;2022-10-16T08:50:22;17.00;99.90
16174;DHT22;14031;50.158;8.626;2022-10-16T08:52:51;17.00;99.90
16174;DHT22;14031;50.158;8.626;2022-10-16T08:55:30;17.00;99.90
16174;DHT22;14031;50.158;8.626;2022-10-16T08:57:59;17.00;99.90
16174;DHT22;14031;50.158;8.626;2022-10-16T09:00:26;17.00;99.90
16174;DHT22;14031;50.158;8.626;2022-10-16T09:03:01;17.10;99.90
16174;DHT22;14031;50.158;8.626;2022-10-16T09:06:05;17.00;99.90
16174;DHT22;14031;50.158;8.626;2022-10-16T09:08:42;17.10;99.90
16174;DHT22;14031;50.158;8.626;2022-10-16T09:11:16;17.10;99.90
16174;DHT22;14031;50.158;8.626;2022-10-16T09:13:51;17.40;99.90
16174;DHT22;14031;50.158;8.626;2022-10-16T09:16:24;17.50;99.90
16174;DHT22;14031;50.158;8.626;2022-10-16T09:19:03;17.60;99.90
16174;DHT22;14031;50.158;8.626;2022-10-16T09:21:36;17.70;99.90
16174;DHT22;14031;50.158;8.626;2022-10-16T09:24:10;17.70;99.90
16174;DHT22;14031;50.158;8.626;2022-10-16T09:26:38;17.60;99.90
16174;DHT22;14031;50.158;8.626;2022-10-16T09:29:05;17.60;99.90
16174;DHT22;14031;50.158;8.626;2022-10-16T09:31:32;17.60;99.90
16174;DHT22;14031;50.158;8.626;2022-10-16T09:34:04;17.60;99.90
16174;DHT22;14031;50.158;8.626;2022-10-16T09:36:36;17.50;99.90
16174;DHT22;14031;50.158;8.626;2022-10-16T09:39:07;17.50;99.90
16174;DHT22;14031;50.158;8.626;2022-10-16T09:41:34;17.50;99.90
16174;DHT22;14031;50.158;8.626;2022-10-16T09:44:03;17.50;99.90
16174;DHT22;14031;50.158;8.626;2022-10-16T09:46:33;17.50;99.90
16174;DHT22;14031;50.158;8.626;2022-10-16T09:49:03;17.50;99.90
16174;DHT22;14031;50.158;8.626;2022-10-16T09:51:32;17.40;99.90
16174;DHT22;14031;50.158;8.626;2022-10-16T09:54:01;17.30;99.90
16174;DHT22;14031;50.158;8.626;2022-10-16T09:56:30;17.40;99.90
16174;DHT22;14031;50.158;8.626;2022-10-16T09:58:59;17.40;99.90
16174;DHT22;14031;50.158;8.626;2022-10-16T10:01:30;17.50;99.90
16174;DHT22;14031;50.158;8.626;2022-10-16T10:03:58;17.50;99.90
16174;DHT22;14031;50.158;8.626;2022-10-16T10:06:31;17.50;99.90
16174;DHT22;14031;50.158;8.626;2022-10-16T10:09:06;17.50;99.90
16174;DHT22;14031;50.158;8.626;2022-10-16T10:11:37;17.50;99.90
16174;DHT22;14031;50.158;8.626;2022-10-16T10:14:05;17.60;99.90
16174;DHT22;14031;50.158;8.626;2022-10-16T10:16:32;17.70;99.90
16174;DHT22;14031;50.158;8.626;2022-10-16T10:18:59;17.90;99.90
16174;DHT22;14031;50.158;8.626;2022-10-16T10:21:26;18.00;99.90
16174;DHT22;14031;50.158;8.626;2022-10-16T10:23:56;18.30;99.90
16174;DHT22;14031;50.158;8.626;2022-10-16T10:26:26;18.50;99.90
16174;DHT22;14031;50.158;8.626;2022-10-16T10:28:59;18.60;99.90
16174;DHT22;14031;50.158;8.626;2022-10-16T10:31:35;18.90;99.90
16174;DHT22;14031;50.158;8.626;2022-10-16T10:34:17;18.80;99.90
16174;DHT22;14031;50.158;8.626;2022-10-16T10:36:54;18.90;99.90
16174;DHT22;14031;50.158;8.626;2022-10-16T10:39:29;19.00;99.90
16174;DHT22;14031;50.158;8.626;2022-10-16T10:42:09;19.10;99.90
16174;DHT22;14031;50.158;8.626;2022-10-16T10:45:11;19.30;99.90
16174;DHT22;14031;50.158;8.626;2022-10-16T10:47:47;19.40;99.90
16174;DHT22;14031;50.158;8.626;2022-10-16T10:50:23;19.50;99.90
16174;DHT22;14031;50.158;8.626;2022-10-16T10:52:59;19.50;99.90
16174;DHT22;14031;50.158;8.626;2022-10-16T10:55:37;19.60;99.90
16174;DHT22;14031;50.158;8.626;2022-10-16T10:58:26;19.70;99.90
16174;DHT22;14031;50.158;8.626;2022-10-16T11:01:01;19.80;99.90
16174;DHT22;14031;50.158;8.626;2022-10-16T11:03:38;19.80;99.90
16174;DHT22;14031;50.158;8.626;2022-10-16T11:06:09;19.80;99.90
16174;DHT22;14031;50.158;8.626;2022-10-16T11:08:41;19.80;99.90
16174;DHT22;14031;50.158;8.626;2022-10-16T11:11:14;19.90;99.90
16174;DHT22;14031;50.158;8.626;2022-10-16T11:13:48;19.90;99.90
16174;DHT22;14031;50.158;8.626;2022-10-16T11:16:22;19.90;99.90
16174;DHT22;14031;50.158;8.626;2022-10-16T11:18:56;19.90;99.90
16174;DHT22;14031;50.158;8.626;2022-10-16T11:21:26;19.90;99.90
16174;DHT22;14031;50.158;8.626;2022-10-16T11:23:59;19.90;99.90
16174;DHT22;14031;50.158;8.626;2022-10-16T11:26:33;19.90;99.90
16174;DHT22;14031;50.158;8.626;2022-10-16T11:29:02;19.80;99.90
16174;DHT22;14031;50.158;8.626;2022-10-16T11:31:36;19.80;99.90
16174;DHT22;14031;50.158;8.626;2022-10-16T11:34:09;19.70;99.90
16174;DHT22;14031;50.158;8.626;2022-10-16T11:36:47;19.60;99.90
16174;DHT22;14031;50.158;8.626;2022-10-16T11:39:19;19.60;99.90
16174;DHT22;14031;50.158;8.626;2022-10-16T11:41:51;19.50;99.90
16174;DHT22;14031;50.158;8.626;2022-10-16T11:44:33;19.60;99.90
16174;DHT22;14031;50.158;8.626;2022-10-16T11:47:09;19.70;99.90
16174;DHT22;14031;50.158;8.626;2022-10-16T11:49:40;19.80;99.90
16174;DHT22;14031;50.158;8.626;2022-10-16T11:52:12;20.00;99.90
16174;DHT22;14031;50.158;8.626;2022-10-16T11:54:47;20.10;99.90
16174;DHT22;14031;50.158;8.626;2022-10-16T11:57:20;20.30;99.90
16174;DHT22;14031;50.158;8.626;2022-10-16T11:59:51;20.50;99.90
16174;DHT22;14031;50.158;8.626;2022-10-16T12:02:32;20.60;99.90
16174;DHT22;14031;50.158;8.626;2022-10-16T12:05:07;20.70;99.90
16174;DHT22;14031;50.158;8.626;2022-10-16T12:07:44;20.70;99.90
16174;DHT22;14031;50.158;8.626;2022-10-16T12:10:22;20.80;99.90
16174;DHT22;14031;50.158;8.626;2022-10-16T12:12:50;20.90;99.90
16174;DHT22;14031;50.158;8.626;2022-10-16T12:15:23;20.90;99.90
16174;DHT22;14031;50.158;8.626;2022-10-16T12:17:50;20.90;99.90
16174;DHT22;14031;50.158;8.626;2022-10-16T12:20:35;20.80;99.90
16174;DHT22;14031;50.158;8.626;2022-10-16T12:23:04;20.80;99.90
16174;DHT22;14031;50.158;8.626;2022-10-16T12:25:33;20.70;99.90
16174;DHT22;14031;50.158;8.626;2022-10-16T12:28:04;20.70;99.90
16174;DHT22;14031;50.158;8.626;2022-10-16T12:30:33;20.70;99.90
16174;DHT22;14031;50.158;8.626;2022-10-16T12:33:02;20.80;99.90
16174;DHT22;14031;50.158;8.626;2022-10-16T12:35:32;20.90;99.90
16174;DHT22;14031;50.158;8.626;2022-10-16T12:38:15;21.00;99.90
16174;DHT22;14031;50.158;8.626;2022-10-16T12:40:44;21.00;99.90
16174;DHT22;14031;50.158;8.626;2022-10-16T12:43:27;21.00;99.90
16174;DHT22;14031;50.158;8.626;2022-10-16T12:46:03;21.10;99.90
16174;DHT22;14031;50.158;8.626;2022-10-16T12:48:30;21.10;99.90
16174;DHT22;14031;50.158;8.626;2022-10-16T12:51:09;21.10;99.90
16174;DHT22;14031;50.158;8.626;2022-10-16T12:53:36;21.20;99.90
16174;DHT22;14031;50.158;8.626;2022-10-16T12:56:10;21.10;99.90
16174;DHT22;14031;50.158;8.626;2022-10-16T12:58:51;21.30;99.90
16174;DHT22;14031;50.158;8.626;2022-10-16T13:01:41;21.40;99.90
16174;DHT22;14031;50.158;8.626;2022-10-16T13:04:26;21.60;99.90
16174;DHT22;14031;50.158;8.626;2022-10-16T13:07:03;21.70;99.90
16174;DHT22;14031;50.158;8.626;2022-10-16T13:09:53;21.60;99.90
16174;DHT22;14031;50.158;8.626;2022-10-16T13:12:36;21.50;99.90
16174;DHT22;14031;50.158;8.626;2022-10-16T13:15:27;21.40;99.90
16174;DHT22;14031;50.158;8.626;2022-10-16T13:18:01;21.30;99.90
16174;DHT22;14031;50.158;8.626;2022-10-16T13:20:34;21.30;99.90
16174;DHT22;14031;50.158;8.626;2022-10-16T13:23:10;21.30;99.90
16174;DHT22;14031;50.158;8.626;2022-10-16T13:25:48;21.20;99.90
16174;DHT22;14031;50.158;8.626;2022-10-16T13:28:22;21.20;99.90
16174;DHT22;14031;50.158;8.626;2022-10-16T13:30:53;21.20;99.90
16174;DHT22;14031;50.158;8.626;2022-10-16T13:33:27;21.20;99.90
16174;DHT22;14031;50.158;8.626;2022-10-16T13:35:57;21.20;99.90
16174;DHT22;14031;50.158;8.626;2022-10-16T13:38:25;21.20;99.90
16174;DHT22;14031;50.158;8.626;2022-10-16T13:40:56;21.30;99.90
16174;DHT22;14031;50.158;8.626;2022-10-16T13:43:31;21.40;99.90
16174;DHT22;14031;50.158;8.626;2022-10-16T13:46:01;21.50;99.90
16174;DHT22;14031;50.158;8.626;2022-10-16T13:48:29;21.60;99.90
16174;DHT22;14031;50.158;8.626;2022-10-16T13:51:06;21.50;99.90
16174;DHT22;14031;50.158;8.626;2022-10-16T13:53:38;21.50;99.90
16174;DHT22;14031;50.158;8.626;2022-10-16T13:56:11;21.40;99.90
16174;DHT22;14031;50.158;8.626;2022-10-16T13:58:38;21.30;99.90
16174;DHT22;14031;50.158;8.626;2022-10-16T14:01:16;21.10;99.90
16174;DHT22;14031;50.158;8.626;2022-10-16T14:03:46;21.00;99.90
16174;DHT22;14031;50.158;8.626;2022-10-16T14:06:15;21.00;99.90
16174;DHT22;14031;50.158;8.626;2022-10-16T14:08:45;20.90;99.90
16174;DHT22;14031;50.158;8.626;2022-10-16T14:11:20;20.80;99.90
16174;DHT22;14031;50.158;8.626;2022-10-16T14:13:48;20.80;99.90
16174;DHT22;14031;50.158;8.626;2022-10-16T14:16:19;20.70;99.90
16174;DHT22;14031;50.158;8.626;2022-10-16T14:18:56;20.70;99.90
16174;DHT22;14031;50.158;8.626;2022-10-16T14:21:23;20.60;99.90
16174;DHT22;14031;50.158;8.626;2022-10-16T14:23:50;20.60;99.90
16174;DHT22;14031;50.158;8.626;2022-10-16T14:26:20;20.50;99.90
16174;DHT22;14031;50.158;8.626;2022-10-16T14:28:48;20.50;99.90
16174;DHT22;14031;50.158;8.626;2022-10-16T14:31:30;20.40;99.90
16174;DHT22;14031;50.158;8.626;2022-10-16T14:33:57;20.30;99.90
16174;DHT22;14031;50.158;8.626;2022-10-16T14:36:25;20.30;99.90
16174;DHT22;14031;50.158;8.626;2022-10-16T14:39:03;20.30;99.90
16174;DHT22;14031;50.158;8.626;2022-10-16T14:41:32;20.30;99.90
16174;DHT22;14031;50.158;8.626;2022-10-16T14:44:02;20.40;99.90
16174;DHT22;14031;50.158;8.626;2022-10-16T14:46:33;20.50;99.90
16174;DHT22;14031;50.158;8.626;2022-10-16T14:49:04;20.50;99.90
16174;DHT22;14031;50.158;8.626;2022-10-16T14:51:40;20.50;99.90
16174;DHT22;14031;50.158;8.626;2022-10-16T14:54:10;20.60;99.90
16174;DHT22;14031;50.158;8.626;2022-10-16T14:56:44;20.60;99.90
16174;DHT22;14031;50.158;8.626;2022-10-16T14:59:16;20.50;99.90
16174;DHT22;14031;50.158;8.626;2022-10-16T15:01:45;20.50;99.90
16174;DHT22;14031;50.158;8.626;2022-10-16T15:04:12;20.50;99.90
16174;DHT22;14031;50.158;8.626;2022-10-16T15:06:40;20.50;99.90
16174;DHT22;14031;50.158;8.626;2022-10-16T15:09:07;20.50;99.90
16174;DHT22;14031;50.158;8.626;2022-10-16T15:11:34;20.50;99.90
16174;DHT22;14031;50.158;8.626;2022-10-16T15:14:01;20.50;99.90
16174;DHT22;14031;50.158;8.626;2022-10-16T15:16:29;20.60;99.90
16174;DHT22;14031;50.158;8.626;2022-10-16T15:18:57;20.60;99.90
16174;DHT22;14031;50.158;8.626;2022-10-16T15:21:26;20.60;99.90
16174;DHT22;14031;50.158;8.626;2022-10-16T15:23:54;20.60;99.90
16174;DHT22;14031;50.158;8.626;2022-10-16T15:26:22;20.60;99.90
16174;DHT22;14031;50.158;8.626;2022-10-16T15:28:48;20.50;99.90
16174;DHT22;14031;50.158;8.626;2022-10-16T15:31:15;20.40;99.90
16174;DHT22;14031;50.158;8.626;2022-10-16T15:33:42;20.30;99.90
16174;DHT22;14031;50.158;8.626;2022-10-16T15:36:10;20.30;99.90
16174;DHT22;14031;50.158;8.626;2022-10-16T15:38:37;20.20;99.90
16174;DHT22;14031;50.158;8.626;2022-10-16T15:41:04;20.20;99.90
16174;DHT22;14031;50.158;8.626;2022-10-16T15:43:31;20.10;99.90
16174;DHT22;14031;50.158;8.626;2022-10-16T15:46:02;20.10;99.90
16174;DHT22;14031;50.158;8.626;2022-10-16T15:48:30;20.00;99.90
16174;DHT22;14031;50.158;8.626;2022-10-16T15:50:57;20.00;99.90
16174;DHT22;14031;50.158;8.626;2022-10-16T15:53:25;19.90;99.90
16174;DHT22;14031;50.158;8.626;2022-10-16T15:55:52;19.90;99.90
16174;DHT22;14031;50.158;8.626;2022-10-16T15:58:19;19.80;99.90